Terminal Aerodrome Forecast
Issued by NWS

Home | Current Version | Previous Version | Text Only | Print | Product List | Glossary On
Versions: 1 2 3 4 5 6 7 8 9 10 11 12 13 14 15 16
534
FTUS41 KBGM 291129
TAFELM
TAF
KELM 291129Z 2912/3012 VRB04KT P6SM OVC040
     FM291500 VRB04KT P6SM OVC025
     FM292000 VRB04KT 4SM -SHRA BR OVC025
     FM300300 VRB03KT 4SM BR OVC015=

USA.gov is the U.S. government's official web portal to all federal, state and local government web resources and services.